createdAt,value
2022-08-24T00:04:56.703Z,41.74
2022-08-24T00:10:01.002Z,42.37
2022-08-24T00:15:05.802Z,43.33
2022-08-24T00:20:11.378Z,44.17
2022-08-24T00:25:17.306Z,44.08
2022-08-24T00:30:21.633Z,44.18
2022-08-24T00:35:24.945Z,44.33
2022-08-24T00:40:44.229Z,44.06
2022-08-24T00:45:52.727Z,44.99
2022-08-24T00:50:59.662Z,44.96
2022-08-24T00:56:07.886Z,44.53
2022-08-24T01:01:13.817Z,45.14
2022-08-24T01:06:16.957Z,45.02
2022-08-24T01:11:24.897Z,46.36
2022-08-24T01:16:45.091Z,46.57
2022-08-24T01:21:54.263Z,46.68
2022-08-24T01:26:59.649Z,46.43
2022-08-24T01:32:02.507Z,46.63
2022-08-24T01:37:08.639Z,47.45
2022-08-24T01:42:14.353Z,47.65
2022-08-24T01:47:18.353Z,48.04
2022-08-24T01:52:23.751Z,48.25
2022-08-24T01:57:28.328Z,48.26
2022-08-24T02:02:32.846Z,48.06
2022-08-24T02:07:35.674Z,48.65
2022-08-24T02:12:42.494Z,50.30
2022-08-24T02:17:45.311Z,49.29
2022-08-24T02:22:48.677Z,50.63
2022-08-24T02:27:53.867Z,50.28
2022-08-24T02:32:56.654Z,50.08
2022-08-24T02:37:59.870Z,49.49
2022-08-24T02:43:04.547Z,49.57
2022-08-24T02:48:07.523Z,49.49
2022-08-24T02:53:10.472Z,49.26
2022-08-24T02:58:15.783Z,49.62
2022-08-24T03:03:18.597Z,50.13
2022-08-24T03:08:21.410Z,50.78
2022-08-24T03:13:26.642Z,51.67
2022-08-24T03:18:29.570Z,51.96
2022-08-24T03:23:34.705Z,52.42
2022-08-24T03:28:39.416Z,51.66
2022-08-24T03:33:42.251Z,52.37
2022-08-24T03:38:45.311Z,52.10
2022-08-24T03:43:49.764Z,53.15
2022-08-24T03:48:52.568Z,53.15
2022-08-24T03:53:58.573Z,53.70
2022-08-24T03:59:02.745Z,53.43
2022-08-24T04:04:06.522Z,54.18
2022-08-24T04:09:09.362Z,54.40
2022-08-24T04:14:23.680Z,54.49
2022-08-24T04:19:30.452Z,54.51
2022-08-24T04:24:33.217Z,55.46
2022-08-24T04:29:37.376Z,55.63
2022-08-24T04:34:40.153Z,56.39
2022-08-24T04:39:43.219Z,58.22
2022-08-24T04:44:47.433Z,57.16
2022-08-24T04:49:50.185Z,57.10
2022-08-24T04:54:52.957Z,57.82
2022-08-24T04:59:59.164Z,57.42
2022-08-24T05:05:02.084Z,57.23
2022-08-24T05:10:07.487Z,57.91
2022-08-24T05:15:13.542Z,57.79
2022-08-24T05:20:16.325Z,57.49
2022-08-24T05:25:19.346Z,56.59
2022-08-24T05:30:23.567Z,56.71
2022-08-24T05:35:26.389Z,56.75
2022-08-24T05:40:33.255Z,56.44
2022-08-24T05:45:37.698Z,57.55
2022-08-24T05:50:40.490Z,57.80
2022-08-24T05:55:43.296Z,56.94
2022-08-24T06:00:49.610Z,57.06
2022-08-24T06:05:53.095Z,55.58
2022-08-24T06:10:55.925Z,54.47
2022-08-24T06:16:21.551Z,54.67
2022-08-24T06:21:28.453Z,54.15
2022-08-24T06:26:50.278Z,53.81
2022-08-24T06:31:56.127Z,53.95
2022-08-24T06:36:59.108Z,53.53
2022-08-24T06:42:01.956Z,53.64
2022-08-24T06:47:06.552Z,53.37
2022-08-24T06:52:10.981Z,53.97
2022-08-24T06:57:13.779Z,52.62
2022-08-24T07:02:19.406Z,52.82
2022-08-24T07:07:22.223Z,53.07
2022-08-24T07:12:25.426Z,53.44
2022-08-24T07:17:29.864Z,53.38
2022-08-24T07:22:32.651Z,53.05
2022-08-24T07:27:35.466Z,52.57
2022-08-24T07:32:39.637Z,51.97
2022-08-24T07:37:42.574Z,52.40
2022-08-24T07:42:49.024Z,52.16
2022-08-24T07:47:55.858Z,51.96
2022-08-24T07:52:58.974Z,50.72
2022-08-24T07:58:02.092Z,51.37
2022-08-24T08:03:06.531Z,50.88
2022-08-24T08:08:09.558Z,49.89
2022-08-24T08:13:12.367Z,49.47
2022-08-24T08:18:17.038Z,48.90
2022-08-24T08:23:37.631Z,49.12
2022-08-24T08:28:42.627Z,49.46
2022-08-24T08:33:47.004Z,49.06
2022-08-24T08:38:51.038Z,48.31
2022-08-24T08:44:01.980Z,48.33
2022-08-24T08:49:35.534Z,47.66
2022-08-24T08:54:56.354Z,47.20
2022-08-24T09:00:17.737Z,47.24
2022-08-24T09:05:48.622Z,47.05
2022-08-24T09:10:58.041Z,46.61
2022-08-24T09:16:22.645Z,45.91
2022-08-24T09:21:39.205Z,45.87
2022-08-24T09:26:57.158Z,45.45
2022-08-24T09:32:23.190Z,45.64
2022-08-24T09:37:35.371Z,45.09
2022-08-24T09:43:06.222Z,45.31
2022-08-24T09:48:53.263Z,44.91
2022-08-24T09:54:28.644Z,45.28
2022-08-24T09:59:58.094Z,44.94
2022-08-24T10:05:10.670Z,44.86
2022-08-24T10:10:28.494Z,44.52
2022-08-24T10:15:42.282Z,44.37
2022-08-24T10:21:00.250Z,44.26
2022-08-24T10:26:09.382Z,44.21
2022-08-24T10:31:19.994Z,43.97
2022-08-24T10:36:57.220Z,43.72
2022-08-24T10:42:51.847Z,43.84
2022-08-24T10:48:13.554Z,43.36
2022-08-24T10:53:24.088Z,42.56
2022-08-24T10:58:50.909Z,42.02
2022-08-24T11:03:59.901Z,42.04
2022-08-24T11:09:08.445Z,41.66
2022-08-24T11:14:25.673Z,41.71
2022-08-24T11:19:35.288Z,40.86
2022-08-24T11:24:44.834Z,40.10
2022-08-24T11:30:06.470Z,39.64
2022-08-24T11:35:21.053Z,39.14
2022-08-24T11:40:29.213Z,38.77
2022-08-24T11:45:37.865Z,38.46
2022-08-24T11:50:49.425Z,37.86
2022-08-24T11:56:00.367Z,37.62
2022-08-24T12:01:10.085Z,37.66
2022-08-24T12:06:24.600Z,37.48
2022-08-24T12:11:41.836Z,36.86
2022-08-24T12:16:52.937Z,36.11
2022-08-24T12:22:00.460Z,36.46
2022-08-24T12:27:07.885Z,35.96
2022-08-24T12:32:16.101Z,35.72
2022-08-24T12:37:25.211Z,36.02
2022-08-24T12:42:35.080Z,35.37
2022-08-24T12:47:46.700Z,35.19
2022-08-24T12:53:19.384Z,34.76
2022-08-24T12:58:54.403Z,34.36
2022-08-24T13:04:06.878Z,34.53
2022-08-24T13:09:18.107Z,33.74
2022-08-24T13:14:23.362Z,33.09
2022-08-24T13:19:36.413Z,32.92
2022-08-24T13:24:44.741Z,32.66
2022-08-24T13:29:55.468Z,32.73
2022-08-24T13:34:59.710Z,32.72
2022-08-24T13:40:14.925Z,32.79
2022-08-24T13:45:34.146Z,33.26
2022-08-24T13:50:47.586Z,32.34
2022-08-24T13:55:53.625Z,32.13
2022-08-24T14:01:03.835Z,31.21
2022-08-24T14:06:23.003Z,31.19
2022-08-24T14:11:45.562Z,31.98
2022-08-24T14:17:21.683Z,31.82
2022-08-24T14:22:35.135Z,31.53
2022-08-24T14:27:42.541Z,31.26
2022-08-24T14:33:04.152Z,30.31
2022-08-24T14:38:23.445Z,29.73
2022-08-24T14:43:35.702Z,29.56
2022-08-24T14:48:48.740Z,28.86
2022-08-24T14:54:02.115Z,28.36
2022-08-24T14:59:13.061Z,27.54
2022-08-24T15:04:43.849Z,26.33
2022-08-24T15:09:47.013Z,26.57
2022-08-24T15:14:55.734Z,25.88
2022-08-24T15:20:04.349Z,25.27
2022-08-24T15:25:12.566Z,25.28
2022-08-24T15:30:27.317Z,26.01
2022-08-24T15:35:33.039Z,26.01
2022-08-24T15:40:35.857Z,25.48
2022-08-24T15:45:49.681Z,25.10
2022-08-24T15:50:55.816Z,24.66
2022-08-24T15:55:58.982Z,24.37
2022-08-24T16:01:39.579Z,23.90
2022-08-24T16:06:45.260Z,23.51
2022-08-24T16:11:59.424Z,23.71
2022-08-24T16:17:31.301Z,23.98
2022-08-24T16:22:37.845Z,24.56
2022-08-24T16:27:56.667Z,24.35
2022-08-24T16:33:05.946Z,24.93
2022-08-24T16:38:08.993Z,24.77
2022-08-24T16:43:11.841Z,24.64
2022-08-24T16:48:16.247Z,24.54
2022-08-24T16:53:19.087Z,24.89
2022-08-24T16:58:24.086Z,25.04
2022-08-24T17:03:28.982Z,25.69
2022-08-24T17:08:32.069Z,26.16
2022-08-24T17:13:50.818Z,25.92
2022-08-24T17:18:55.316Z,26.09
2022-08-24T17:23:58.093Z,26.62
2022-08-24T17:29:04.375Z,26.82
2022-08-24T17:34:09.159Z,27.57
2022-08-24T17:39:13.689Z,28.55
2022-08-24T17:44:23.665Z,30.00
2022-08-24T17:49:28.433Z,31.13
2022-08-24T17:54:31.239Z,32.25
2022-08-24T17:59:36.242Z,33.22
2022-08-24T18:04:41.318Z,33.91
2022-08-24T18:09:48.049Z,34.88
2022-08-24T18:14:51.462Z,35.66
2022-08-24T18:19:55.777Z,36.52
2022-08-24T18:24:58.565Z,37.10
2022-08-24T18:30:06.183Z,37.61
2022-08-24T18:35:10.486Z,38.19
2022-08-24T18:40:20.409Z,38.69
2022-08-24T18:45:27.514Z,39.49
2022-08-24T18:50:37.714Z,39.59
2022-08-24T18:55:46.108Z,39.75
2022-08-24T19:00:51.141Z,40.04
2022-08-24T19:05:56.429Z,39.94
2022-08-24T19:10:59.232Z,39.50
2022-08-24T19:16:02.313Z,39.41
2022-08-24T19:21:06.765Z,39.87
2022-08-24T19:26:09.546Z,40.10
2022-08-24T19:31:14.670Z,41.27
2022-08-24T19:36:19.605Z,41.63
2022-08-24T19:41:22.837Z,42.56
2022-08-24T19:46:38.622Z,43.23
2022-08-24T19:51:42.870Z,43.47
2022-08-24T19:56:45.701Z,43.03
2022-08-24T20:01:48.569Z,44.49
2022-08-24T20:06:53.299Z,45.36
2022-08-24T20:11:56.046Z,45.40
2022-08-24T20:16:59.384Z,45.91
2022-08-24T20:22:03.541Z,46.42
2022-08-24T20:27:21.532Z,46.51
2022-08-24T20:32:24.348Z,47.33
2022-08-24T20:37:31.270Z,47.95
2022-08-24T20:42:34.070Z,48.57
2022-08-24T20:47:48.462Z,48.51
2022-08-24T20:52:53.984Z,47.75
2022-08-24T20:58:00.669Z,47.82
2022-08-24T21:03:03.591Z,47.90
2022-08-24T21:08:08.331Z,47.80
2022-08-24T21:13:11.477Z,48.92
2022-08-24T21:18:14.697Z,50.14
2022-08-24T21:23:18.812Z,50.99
2022-08-24T21:28:22.331Z,50.84
2022-08-24T21:33:41.839Z,51.91
2022-08-24T21:38:46.002Z,50.72
2022-08-24T21:43:48.805Z,51.13
2022-08-24T21:48:51.623Z,50.52
2022-08-24T21:53:59.675Z,50.06
2022-08-24T21:59:02.832Z,50.90
2022-08-24T22:04:05.983Z,49.91
2022-08-24T22:09:10.361Z,51.60
2022-08-24T22:14:15.178Z,51.86
2022-08-24T22:19:18.018Z,51.58
2022-08-24T22:24:22.141Z,51.82
2022-08-24T22:29:25.122Z,52.23
2022-08-24T22:34:27.912Z,51.82
2022-08-24T22:39:32.601Z,52.74
2022-08-24T22:44:36.338Z,52.09
2022-08-24T22:49:41.406Z,52.46
2022-08-24T22:54:45.582Z,53.82
2022-08-24T22:59:48.395Z,52.75
2022-08-24T23:04:52.820Z,53.07
2022-08-24T23:09:57.071Z,52.72
2022-08-24T23:15:00.065Z,53.39
2022-08-24T23:20:06.110Z,52.77
2022-08-24T23:25:12.785Z,53.39
2022-08-24T23:30:15.763Z,54.31
2022-08-24T23:35:18.578Z,54.22
2022-08-24T23:40:22.830Z,53.62
2022-08-24T23:45:28.262Z,53.89
2022-08-24T23:50:31.635Z,54.39
2022-08-24T23:55:36.117Z,54.99
